createdAt,value
2023-05-13T00:00:09.856Z,14.39
2023-05-13T00:01:24.285Z,14.37
2023-05-13T00:02:29.096Z,14.31
2023-05-13T00:03:33.488Z,14.28
2023-05-13T00:04:37.729Z,14.22
2023-05-13T00:05:42.246Z,14.18
2023-05-13T00:06:46.246Z,14.17
2023-05-13T00:07:53.436Z,14.18
2023-05-13T00:08:57.701Z,14.17
2023-05-13T00:10:04.246Z,14.17
2023-05-13T00:11:08.160Z,14.12
2023-05-13T00:12:13.992Z,14.15
2023-05-13T00:13:18.423Z,14.06
2023-05-13T00:14:23.173Z,14.04
2023-05-13T00:15:28.352Z,14.01
2023-05-13T00:16:32.404Z,14.04
2023-05-13T00:17:38.018Z,14.02
2023-05-13T00:18:42.284Z,13.95
2023-05-13T00:19:47.173Z,13.90
2023-05-13T00:20:53.292Z,13.88
2023-05-13T00:21:59.818Z,13.88
2023-05-13T00:23:11.797Z,13.88
2023-05-13T00:24:16.279Z,13.85
2023-05-13T00:25:24.158Z,13.89
2023-05-13T00:26:28.747Z,13.86
2023-05-13T00:27:35.715Z,13.86
2023-05-13T00:28:41.492Z,13.85
2023-05-13T00:29:48.357Z,13.80
2023-05-13T00:30:52.761Z,13.82
2023-05-13T00:31:57.470Z,13.79
2023-05-13T00:33:02.183Z,13.78
2023-05-13T00:34:07.225Z,13.79
2023-05-13T00:35:15.340Z,13.74
2023-05-13T00:36:19.717Z,13.67
2023-05-13T00:37:25.756Z,13.65
2023-05-13T00:38:33.509Z,13.65
2023-05-13T00:39:37.855Z,13.58
2023-05-13T00:40:43.355Z,13.58
2023-05-13T00:41:49.137Z,13.52
2023-05-13T00:42:55.518Z,13.46
2023-05-13T00:44:00.103Z,13.46
2023-05-13T00:45:06.019Z,13.40
2023-05-13T00:46:12.793Z,13.36
2023-05-13T00:47:17.944Z,13.30
2023-05-13T00:48:23.650Z,13.30
2023-05-13T00:49:29.531Z,13.26
2023-05-13T00:50:34.965Z,13.22
2023-05-13T00:51:44.890Z,13.20
2023-05-13T00:52:52.285Z,13.20
2023-05-13T00:53:59.499Z,13.18
2023-05-13T00:55:05.990Z,13.17
2023-05-13T00:56:10.920Z,13.15
2023-05-13T00:57:14.921Z,13.10
2023-05-13T00:58:20.215Z,13.08
2023-05-13T00:59:30.900Z,13.08
2023-05-13T01:00:48.476Z,13.05
2023-05-13T01:02:37.101Z,12.97
2023-05-13T01:04:02.540Z,12.97
2023-05-13T01:05:53.630Z,13.00
2023-05-13T01:07:20.042Z,13.01
2023-05-13T01:08:54.538Z,13.00
2023-05-13T01:10:15.918Z,12.94
2023-05-13T01:11:32.969Z,12.95
2023-05-13T01:12:41.069Z,12.91
2023-05-13T01:13:50.027Z,12.87
2023-05-13T01:15:26.818Z,12.83
2023-05-13T01:17:28.117Z,12.76
2023-05-13T01:18:45.443Z,12.70
2023-05-13T01:19:57.893Z,12.67
2023-05-13T01:21:05.383Z,12.67
2023-05-13T01:22:09.241Z,12.64
2023-05-13T01:23:13.783Z,12.64
2023-05-13T01:24:17.796Z,12.63
2023-05-13T01:25:22.089Z,12.58
2023-05-13T01:26:26.946Z,12.59
2023-05-13T01:27:31.366Z,12.54
2023-05-13T01:28:35.929Z,12.51
2023-05-13T01:29:41.105Z,12.46
2023-05-13T01:30:46.417Z,12.39
2023-05-13T01:31:52.933Z,12.31
2023-05-13T01:32:56.883Z,12.28
2023-05-13T01:34:01.400Z,12.27
2023-05-13T01:35:07.576Z,12.25
2023-05-13T01:36:12.219Z,12.21
2023-05-13T01:37:16.347Z,12.20
2023-05-13T01:38:22.633Z,12.09
2023-05-13T01:39:28.211Z,12.05
2023-05-13T01:40:34.942Z,12.06
2023-05-13T01:41:39.259Z,12.07
2023-05-13T01:42:43.627Z,12.06
2023-05-13T01:43:47.405Z,12.07
2023-05-13T01:44:54.124Z,12.03
2023-05-13T01:46:01.021Z,12.03
2023-05-13T01:47:06.986Z,12.00
2023-05-13T01:48:11.251Z,12.04
2023-05-13T01:49:15.244Z,12.08
2023-05-13T01:50:19.521Z,12.00
2023-05-13T01:51:24.181Z,12.00
2023-05-13T01:52:29.287Z,12.03
2023-05-13T01:53:34.444Z,12.04
2023-05-13T01:54:41.696Z,12.02
2023-05-13T01:55:46.268Z,11.99
2023-05-13T01:56:53.474Z,11.96
2023-05-13T01:57:58.491Z,11.95
2023-05-13T01:59:02.836Z,11.94
2023-05-13T02:00:08.353Z,11.93
2023-05-13T02:01:12.196Z,11.91
2023-05-13T02:02:16.433Z,11.82
2023-05-13T02:03:21.423Z,11.84
2023-05-13T02:04:26.258Z,11.83
2023-05-13T02:05:31.795Z,11.78
2023-05-13T02:06:38.386Z,11.74
2023-05-13T02:07:46.104Z,11.73
2023-05-13T02:08:50.928Z,11.67
2023-05-13T02:10:02.422Z,11.62
2023-05-13T02:11:06.332Z,11.58
2023-05-13T02:12:12.350Z,11.56
2023-05-13T02:13:16.600Z,11.58
2023-05-13T02:14:20.771Z,11.62
2023-05-13T02:15:25.579Z,11.58
2023-05-13T02:16:30.289Z,11.53
2023-05-13T02:17:34.410Z,11.56
2023-05-13T02:18:40.801Z,11.53
2023-05-13T02:19:45.393Z,11.55
2023-05-13T02:20:49.993Z,11.50
2023-05-13T02:21:53.774Z,11.48
2023-05-13T02:22:57.872Z,11.46
2023-05-13T02:24:02.317Z,11.47
2023-05-13T02:25:07.149Z,11.49
2023-05-13T02:26:11.192Z,11.46
2023-05-13T02:27:16.628Z,11.49
2023-05-13T02:28:21.263Z,11.48
2023-05-13T02:29:25.292Z,11.47
2023-05-13T02:30:29.746Z,11.48
2023-05-13T02:31:34.190Z,11.47
2023-05-13T02:32:38.568Z,11.45
2023-05-13T02:33:43.343Z,11.44
2023-05-13T02:34:47.564Z,11.48
2023-05-13T02:35:51.986Z,11.45
2023-05-13T02:36:56.279Z,11.47
2023-05-13T02:38:05.073Z,11.49
2023-05-13T02:39:09.431Z,11.43
2023-05-13T02:40:14.567Z,11.40
2023-05-13T02:41:18.575Z,11.41
2023-05-13T02:42:23.918Z,11.40
2023-05-13T02:43:28.790Z,11.35
2023-05-13T02:44:33.061Z,11.35
2023-05-13T02:45:37.868Z,11.39
2023-05-13T02:46:41.801Z,11.33
2023-05-13T02:47:46.272Z,11.35
2023-05-13T02:48:50.892Z,11.32
2023-05-13T02:49:57.018Z,11.31
2023-05-13T02:51:00.971Z,11.33
2023-05-13T02:52:05.361Z,11.29
2023-05-13T02:53:11.973Z,11.24
2023-05-13T02:54:18.837Z,11.27
2023-05-13T02:55:22.803Z,11.25
2023-05-13T02:56:27.018Z,11.25
2023-05-13T02:57:30.989Z,11.26
2023-05-13T02:58:36.449Z,11.28
2023-05-13T02:59:40.628Z,11.25
2023-05-13T03:00:44.641Z,11.25
2023-05-13T03:01:49.727Z,11.24
2023-05-13T03:02:53.879Z,11.24
2023-05-13T03:03:58.186Z,11.24
2023-05-13T03:05:02.376Z,11.24
2023-05-13T03:06:06.882Z,11.27
2023-05-13T03:07:11.151Z,11.29
2023-05-13T03:08:15.065Z,11.30
2023-05-13T03:09:19.620Z,11.29
2023-05-13T03:10:23.782Z,11.36
2023-05-13T03:11:28.657Z,11.41
2023-05-13T03:12:32.793Z,11.42
2023-05-13T03:13:36.818Z,11.44
2023-05-13T03:14:40.859Z,11.45
2023-05-13T03:15:44.798Z,11.47
2023-05-13T03:16:48.752Z,11.51
2023-05-13T03:17:55.019Z,11.58
2023-05-13T03:18:58.773Z,11.59
2023-05-13T03:20:02.678Z,11.66
2023-05-13T03:21:06.915Z,11.71
2023-05-13T03:22:10.887Z,11.76
2023-05-13T03:23:14.928Z,11.81
2023-05-13T03:24:18.976Z,11.86
2023-05-13T03:25:22.988Z,11.89
2023-05-13T03:26:27.280Z,11.89
2023-05-13T03:27:31.453Z,11.88
2023-05-13T03:28:36.124Z,11.93
2023-05-13T03:29:40.241Z,11.97
2023-05-13T03:30:45.127Z,12.01
2023-05-13T03:31:51.253Z,12.06
2023-05-13T03:32:55.157Z,12.12
2023-05-13T03:33:59.198Z,12.15
2023-05-13T03:35:06.129Z,12.17
2023-05-13T03:36:10.697Z,12.13
2023-05-13T03:37:16.135Z,12.13
2023-05-13T03:38:20.328Z,12.11
2023-05-13T03:39:26.114Z,12.19
2023-05-13T03:40:31.315Z,12.20
2023-05-13T03:41:36.282Z,12.22
2023-05-13T03:42:40.388Z,12.26
2023-05-13T03:43:45.117Z,12.30
2023-05-13T03:44:50.472Z,12.28
2023-05-13T03:45:58.252Z,12.35
2023-05-13T03:47:05.328Z,12.36
2023-05-13T03:48:16.658Z,12.37
2023-05-13T03:49:20.658Z,12.38
2023-05-13T03:50:27.028Z,12.39
2023-05-13T03:51:33.509Z,12.38
2023-05-13T03:52:37.810Z,12.39
2023-05-13T03:53:51.390Z,12.43
2023-05-13T03:54:58.248Z,12.39
2023-05-13T03:56:02.739Z,12.38
2023-05-13T03:57:09.196Z,12.39
2023-05-13T03:58:15.731Z,12.39
2023-05-13T03:59:19.803Z,12.41
2023-05-13T04:00:24.321Z,12.39
2023-05-13T04:01:33.368Z,12.41
2023-05-13T04:02:37.496Z,12.43
2023-05-13T04:03:44.332Z,12.47
2023-05-13T04:04:48.131Z,12.49
2023-05-13T04:05:53.136Z,12.49
2023-05-13T04:06:56.913Z,12.47
2023-05-13T04:08:00.855Z,12.50
2023-05-13T04:09:06.407Z,12.55
2023-05-13T04:10:14.592Z,12.61
2023-05-13T04:11:19.905Z,12.63
2023-05-13T04:12:24.525Z,12.67
2023-05-13T04:13:28.757Z,12.69
2023-05-13T04:14:32.805Z,12.77
2023-05-13T04:15:38.018Z,12.80
2023-05-13T04:16:41.974Z,12.84
2023-05-13T04:17:45.782Z,12.90
2023-05-13T04:18:50.138Z,12.97
2023-05-13T04:19:55.072Z,13.00
2023-05-13T04:21:00.087Z,13.02
2023-05-13T04:22:04.279Z,13.06
2023-05-13T04:23:08.385Z,13.04
2023-05-13T04:24:15.351Z,13.10
2023-05-13T04:25:19.416Z,13.15
2023-05-13T04:26:22.993Z,13.19
2023-05-13T04:27:27.342Z,13.24
2023-05-13T04:28:31.825Z,13.29
2023-05-13T04:29:35.673Z,13.35
2023-05-13T04:30:39.703Z,13.37
2023-05-13T04:31:44.959Z,13.42
2023-05-13T04:32:54.979Z,13.41
2023-05-13T04:33:59.245Z,13.45
2023-05-13T04:35:04.157Z,13.52
2023-05-13T04:36:08.167Z,13.53
2023-05-13T04:37:16.678Z,13.59
2023-05-13T04:38:20.498Z,13.62
2023-05-13T04:39:24.595Z,13.69
2023-05-13T04:40:28.676Z,13.76
2023-05-13T04:41:35.788Z,13.84
2023-05-13T04:42:39.998Z,13.88
2023-05-13T04:43:49.564Z,13.88
2023-05-13T04:44:55.426Z,13.94
2023-05-13T04:45:59.937Z,13.96
2023-05-13T04:47:04.246Z,14.02
2023-05-13T04:48:08.597Z,14.10
2023-05-13T04:49:17.368Z,14.18
2023-05-13T04:50:23.010Z,14.24
2023-05-13T04:51:28.114Z,14.35
2023-05-13T04:52:32.750Z,14.50
2023-05-13T04:53:37.104Z,14.65
2023-05-13T04:54:41.966Z,14.75
2023-05-13T04:55:57.352Z,14.92
2023-05-13T04:57:02.053Z,15.03
2023-05-13T04:58:06.024Z,15.20
2023-05-13T04:59:10.281Z,15.36
2023-05-13T05:00:15.705Z,15.49
2023-05-13T05:01:20.960Z,15.58
2023-05-13T05:02:25.807Z,15.73
2023-05-13T05:03:30.161Z,15.82
2023-05-13T05:04:34.760Z,15.82
2023-05-13T05:05:38.794Z,15.92
2023-05-13T05:06:43.077Z,16.02
2023-05-13T05:07:47.512Z,16.13
2023-05-13T05:08:52.029Z,16.21
2023-05-13T05:09:56.374Z,16.26
2023-05-13T05:11:01.851Z,16.31
2023-05-13T05:12:06.755Z,16.37
2023-05-13T05:13:17.060Z,16.46
2023-05-13T05:14:20.927Z,16.47
2023-05-13T05:15:30.176Z,16.42
2023-05-13T05:16:33.987Z,16.49
2023-05-13T05:17:41.535Z,16.62
2023-05-13T05:18:46.099Z,16.65
2023-05-13T05:19:50.392Z,16.70
2023-05-13T05:20:54.316Z,16.81
2023-05-13T05:22:01.456Z,16.90
2023-05-13T05:23:09.053Z,16.95
2023-05-13T05:24:12.754Z,16.98
2023-05-13T05:25:16.698Z,17.00
2023-05-13T05:26:20.966Z,17.05
2023-05-13T05:27:24.983Z,16.98
2023-05-13T05:28:30.163Z,16.99
2023-05-13T05:29:40.306Z,16.97
2023-05-13T05:30:45.678Z,16.94
2023-05-13T05:31:51.172Z,17.03
2023-05-13T05:32:55.416Z,17.02
2023-05-13T05:34:01.105Z,17.05
2023-05-13T05:35:08.235Z,17.08
2023-05-13T05:36:18.263Z,17.10
2023-05-13T05:37:22.331Z,17.18
2023-05-13T05:38:26.912Z,17.21
2023-05-13T05:39:35.581Z,17.32
2023-05-13T05:40:46.700Z,17.41
2023-05-13T05:41:51.091Z,17.45
2023-05-13T05:42:55.280Z,17.49
2023-05-13T05:43:59.774Z,17.54
2023-05-13T05:45:08.041Z,17.65
2023-05-13T05:46:12.579Z,17.70
2023-05-13T05:47:16.796Z,17.74
2023-05-13T05:48:20.995Z,17.63
2023-05-13T05:49:25.402Z,17.76
2023-05-13T05:50:31.275Z,17.82
2023-05-13T05:51:35.552Z,17.91
2023-05-13T05:52:39.609Z,18.07
2023-05-13T05:53:43.558Z,18.24
2023-05-13T05:54:47.706Z,18.30
2023-05-13T05:55:53.157Z,18.46
2023-05-13T05:56:58.939Z,18.44
2023-05-13T05:58:06.609Z,18.56
2023-05-13T05:59:10.639Z,18.58
2023-05-13T06:00:19.234Z,18.65
2023-05-13T06:01:23.525Z,18.72
2023-05-13T06:02:28.073Z,18.79
2023-05-13T06:03:32.575Z,18.86
2023-05-13T06:04:37.274Z,18.96
2023-05-13T06:05:51.007Z,18.81
2023-05-13T06:06:57.894Z,18.95
2023-05-13T06:08:02.140Z,18.99
2023-05-13T06:09:06.486Z,19.06
2023-05-13T06:10:12.078Z,19.18
2023-05-13T06:11:16.267Z,19.15
2023-05-13T06:12:21.429Z,19.30
2023-05-13T06:13:26.276Z,19.37
2023-05-13T06:14:31.045Z,19.41
2023-05-13T06:15:35.912Z,19.49
2023-05-13T06:16:42.939Z,19.42
2023-05-13T06:17:47.070Z,19.49
2023-05-13T06:18:51.068Z,19.70
2023-05-13T06:19:55.341Z,19.80
2023-05-13T06:21:02.107Z,19.65
2023-05-13T06:22:06.321Z,19.90
2023-05-13T06:23:11.873Z,20.04
2023-05-13T06:24:18.679Z,20.28
2023-05-13T06:25:23.036Z,20.41
2023-05-13T06:26:26.793Z,20.41
2023-05-13T06:27:30.717Z,20.44
2023-05-13T06:28:34.856Z,20.50
2023-05-13T06:29:49.488Z,20.34
2023-05-13T06:30:54.645Z,20.57
2023-05-13T06:31:59.001Z,20.85
2023-05-13T06:33:03.145Z,21.02
2023-05-13T06:34:07.433Z,21.18
2023-05-13T06:35:11.161Z,21.32
2023-05-13T06:36:15.114Z,21.55
2023-05-13T06:37:20.162Z,21.67
2023-05-13T06:38:24.036Z,21.90
2023-05-13T06:39:27.978Z,21.75
2023-05-13T06:40:34.856Z,22.16
2023-05-13T06:41:39.970Z,22.36
2023-05-13T06:42:43.976Z,22.57
2023-05-13T06:43:49.079Z,22.70
2023-05-13T06:44:53.290Z,23.04
2023-05-13T06:45:57.586Z,23.14
2023-05-13T06:47:03.139Z,23.24
2023-05-13T06:48:07.720Z,23.43
2023-05-13T06:49:11.664Z,23.72
2023-05-13T06:50:19.592Z,23.77
2023-05-13T06:51:26.370Z,23.97
2023-05-13T06:52:31.765Z,24.08
2023-05-13T06:53:36.032Z,24.24
2023-05-13T06:54:40.541Z,24.50
2023-05-13T06:55:44.681Z,24.72
2023-05-13T06:56:49.396Z,24.76
2023-05-13T06:57:53.644Z,25.07
2023-05-13T06:58:57.788Z,25.27
2023-05-13T07:00:06.008Z,25.41
2023-05-13T07:01:14.226Z,25.51
2023-05-13T07:02:18.814Z,25.68
2023-05-13T07:03:23.209Z,25.79
2023-05-13T07:04:29.560Z,26.07
2023-05-13T07:05:34.971Z,25.95
2023-05-13T07:06:39.435Z,25.97
2023-05-13T07:07:43.568Z,26.05
2023-05-13T07:08:47.992Z,26.05
2023-05-13T07:09:52.540Z,26.11
2023-05-13T07:10:56.677Z,26.13
2023-05-13T07:12:01.021Z,26.18
2023-05-13T07:13:06.567Z,25.91
2023-05-13T07:14:10.340Z,26.06
2023-05-13T07:15:14.359Z,26.04
2023-05-13T07:16:18.274Z,26.08
2023-05-13T07:17:22.415Z,26.34
2023-05-13T07:18:26.333Z,26.56
2023-05-13T07:19:30.586Z,26.77
2023-05-13T07:20:34.846Z,26.96
2023-05-13T07:21:39.423Z,27.12
2023-05-13T07:22:43.220Z,27.16
2023-05-13T07:23:47.111Z,27.04
2023-05-13T07:24:50.991Z,27.15
2023-05-13T07:25:54.814Z,27.37
2023-05-13T07:26:59.125Z,27.38
2023-05-13T07:28:09.577Z,27.68
2023-05-13T07:29:13.584Z,27.78
2023-05-13T07:30:17.361Z,28.18
2023-05-13T07:31:21.610Z,28.45
2023-05-13T07:32:26.264Z,28.66
2023-05-13T07:33:30.318Z,28.81
2023-05-13T07:34:34.634Z,28.83
2023-05-13T07:35:39.008Z,28.70
2023-05-13T07:36:43.109Z,28.40
2023-05-13T07:37:47.125Z,28.16
2023-05-13T07:38:51.776Z,27.81
2023-05-13T07:39:55.829Z,27.62
2023-05-13T07:40:59.925Z,27.37
2023-05-13T07:42:04.485Z,26.98
2023-05-13T07:43:09.738Z,26.46
2023-05-13T07:44:13.622Z,25.99
2023-05-13T07:45:19.554Z,25.63
2023-05-13T07:46:29.080Z,25.25
2023-05-13T07:47:33.654Z,24.91
2023-05-13T07:48:40.388Z,24.75
2023-05-13T07:49:44.631Z,24.60
2023-05-13T07:50:48.730Z,24.75
2023-05-13T07:51:53.092Z,24.95
2023-05-13T07:52:58.299Z,24.96
2023-05-13T07:54:02.331Z,25.05
2023-05-13T07:55:07.109Z,25.01
2023-05-13T07:56:11.582Z,24.79
2023-05-13T07:57:16.224Z,24.44
2023-05-13T07:58:21.197Z,24.11
2023-05-13T07:59:25.494Z,23.64
2023-05-13T08:00:29.519Z,23.43
2023-05-13T08:01:33.808Z,23.26
2023-05-13T08:02:43.099Z,23.02
2023-05-13T08:03:47.515Z,22.95
2023-05-13T08:04:51.743Z,22.95
2023-05-13T08:05:56.230Z,22.95
2023-05-13T08:07:02.585Z,22.90
2023-05-13T08:08:06.672Z,22.87
2023-05-13T08:09:12.408Z,22.99
2023-05-13T08:10:16.252Z,22.96
2023-05-13T08:11:21.812Z,22.79
2023-05-13T08:12:26.242Z,22.67
2023-05-13T08:13:30.491Z,22.46
2023-05-13T08:14:35.073Z,22.30
2023-05-13T08:15:41.018Z,21.93
2023-05-13T08:16:45.536Z,21.85
2023-05-13T08:17:49.738Z,21.93
2023-05-13T08:18:54.192Z,21.90
2023-05-13T08:20:04.751Z,21.79
2023-05-13T08:21:08.712Z,21.80
2023-05-13T08:22:15.907Z,21.81
2023-05-13T08:23:20.865Z,21.83
2023-05-13T08:24:24.774Z,21.80
2023-05-13T08:25:28.467Z,21.94
2023-05-13T08:26:32.651Z,21.88
2023-05-13T08:27:36.767Z,21.96
2023-05-13T08:28:42.289Z,22.06
2023-05-13T08:29:48.346Z,22.14
2023-05-13T08:30:55.795Z,21.88
2023-05-13T08:32:00.267Z,21.97
2023-05-13T08:33:04.965Z,22.19
2023-05-13T08:34:09.165Z,22.28
2023-05-13T08:35:13.414Z,22.50
2023-05-13T08:36:17.432Z,22.73
2023-05-13T08:37:21.846Z,22.89
2023-05-13T08:38:30.092Z,23.15
2023-05-13T08:39:34.494Z,23.34
2023-05-13T08:40:39.144Z,23.67
2023-05-13T08:41:46.926Z,23.94
2023-05-13T08:42:53.814Z,23.98
2023-05-13T08:44:00.300Z,23.93
2023-05-13T08:45:11.622Z,23.92
2023-05-13T08:46:18.740Z,23.64
2023-05-13T08:48:04.665Z,23.23
2023-05-13T08:49:09.662Z,23.09
2023-05-13T08:50:14.573Z,22.92
2023-05-13T08:51:19.023Z,22.73
2023-05-13T08:52:23.524Z,22.50
2023-05-13T08:53:35.881Z,22.38
2023-05-13T08:54:41.898Z,22.27
2023-05-13T08:55:46.094Z,22.25
2023-05-13T08:56:51.403Z,22.25
2023-05-13T08:57:56.245Z,22.17
2023-05-13T08:59:01.254Z,21.95
2023-05-13T09:00:06.024Z,21.85
2023-05-13T09:01:10.883Z,21.80
2023-05-13T09:02:17.970Z,21.78
2023-05-13T09:03:23.859Z,21.81
2023-05-13T09:04:27.571Z,21.61
2023-05-13T09:05:33.493Z,21.49
2023-05-13T09:06:44.014Z,21.48
2023-05-13T09:07:55.206Z,21.60
2023-05-13T09:09:00.079Z,21.56
2023-05-13T09:10:06.372Z,21.61
2023-05-13T09:11:11.323Z,21.56
2023-05-13T09:12:55.558Z,21.36
2023-05-13T09:14:02.870Z,21.23
2023-05-13T09:15:13.454Z,21.05
2023-05-13T09:16:17.466Z,21.01
2023-05-13T09:17:21.272Z,21.06
2023-05-13T09:18:34.409Z,21.15
2023-05-13T09:19:38.544Z,21.18
2023-05-13T09:20:43.313Z,21.19
2023-05-13T09:21:47.553Z,21.19
2023-05-13T09:23:07.923Z,21.17
2023-05-13T09:24:21.580Z,21.04
2023-05-13T09:25:27.262Z,21.07
2023-05-13T09:26:31.803Z,20.89
2023-05-13T09:27:41.958Z,20.93
2023-05-13T09:28:46.855Z,20.92
2023-05-13T09:30:01.115Z,20.88
2023-05-13T09:31:05.866Z,20.91
2023-05-13T09:32:10.393Z,20.90
2023-05-13T09:33:18.008Z,20.89
2023-05-13T09:34:44.480Z,20.88
2023-05-13T09:35:53.865Z,20.87
2023-05-13T09:37:03.661Z,20.86
2023-05-13T09:38:22.609Z,20.81
2023-05-13T09:39:27.782Z,20.77
2023-05-13T09:40:32.355Z,20.72
2023-05-13T09:41:38.793Z,20.70
2023-05-13T09:42:47.540Z,20.69
2023-05-13T09:43:51.896Z,20.75
2023-05-13T09:44:57.011Z,20.79
2023-05-13T09:46:05.708Z,20.69
2023-05-13T09:47:17.988Z,20.70
2023-05-13T09:48:25.511Z,20.76
2023-05-13T09:49:29.385Z,20.82
2023-05-13T09:50:48.680Z,20.91
2023-05-13T09:51:52.674Z,21.02
2023-05-13T09:52:56.814Z,21.11
2023-05-13T09:54:06.996Z,21.19
2023-05-13T09:55:11.320Z,21.26
2023-05-13T09:56:24.123Z,21.35
2023-05-13T09:57:29.107Z,21.37
2023-05-13T09:58:32.973Z,21.39
2023-05-13T09:59:37.272Z,21.34
2023-05-13T10:00:43.785Z,21.35
2023-05-13T10:01:48.962Z,21.36
2023-05-13T10:02:53.810Z,21.30
2023-05-13T10:03:59.793Z,21.31
2023-05-13T10:05:05.876Z,21.25
2023-05-13T10:06:10.485Z,21.28
2023-05-13T10:07:14.888Z,21.31
2023-05-13T10:08:20.521Z,21.27
2023-05-13T10:09:28.615Z,21.28
2023-05-13T10:10:37.327Z,21.31
2023-05-13T10:11:48.649Z,21.23
2023-05-13T10:12:53.854Z,21.23
2023-05-13T10:14:03.591Z,21.24
2023-05-13T10:15:10.560Z,21.21
2023-05-13T10:16:16.947Z,21.23
2023-05-13T10:17:23.492Z,21.25
2023-05-13T10:18:29.456Z,21.23
2023-05-13T10:19:35.060Z,21.24
2023-05-13T10:20:40.313Z,21.27
2023-05-13T10:21:47.933Z,21.11
2023-05-13T10:22:53.872Z,20.91
2023-05-13T10:24:02.082Z,20.96
2023-05-13T10:25:07.505Z,20.82
2023-05-13T10:26:13.204Z,20.83
2023-05-13T10:27:23.122Z,20.86
2023-05-13T10:28:28.319Z,20.77
2023-05-13T10:29:33.231Z,20.65
2023-05-13T10:30:39.837Z,20.64
2023-05-13T10:31:46.847Z,20.64
2023-05-13T10:32:56.831Z,20.47
2023-05-13T10:34:01.612Z,20.40
2023-05-13T10:35:18.442Z,20.34
2023-05-13T10:36:40.580Z,20.34
2023-05-13T10:38:47.120Z,20.25
2023-05-13T10:40:18.089Z,20.31
2023-05-13T10:41:59.417Z,20.27
2023-05-13T10:43:26.672Z,20.34
2023-05-13T10:44:36.271Z,20.40
2023-05-13T10:45:44.277Z,20.44
2023-05-13T10:46:49.699Z,20.37
2023-05-13T10:47:56.741Z,20.40
2023-05-13T10:49:02.899Z,20.44
2023-05-13T10:50:27.708Z,20.56
2023-05-13T10:51:32.466Z,20.63
2023-05-13T10:52:50.252Z,20.66
2023-05-13T10:54:00.857Z,20.72
2023-05-13T10:55:05.151Z,20.75
2023-05-13T10:56:09.153Z,20.78
2023-05-13T10:57:14.271Z,20.79
2023-05-13T10:58:22.638Z,20.71
2023-05-13T10:59:31.645Z,20.64
2023-05-13T11:00:40.257Z,20.59
2023-05-13T11:01:44.437Z,20.50
2023-05-13T11:02:52.130Z,20.43
2023-05-13T11:04:05.153Z,20.45
2023-05-13T11:05:10.329Z,20.50
2023-05-13T11:06:15.559Z,20.51
2023-05-13T11:07:19.749Z,20.52
2023-05-13T11:08:45.547Z,20.59
2023-05-13T11:09:53.193Z,20.48
2023-05-13T11:11:00.597Z,20.53
2023-05-13T11:12:05.420Z,20.58
2023-05-13T11:13:16.738Z,20.60
2023-05-13T11:14:23.500Z,20.63
2023-05-13T11:15:50.948Z,20.65
2023-05-13T11:17:09.739Z,20.75
2023-05-13T11:18:14.677Z,20.81
2023-05-13T11:19:32.080Z,20.86
2023-05-13T11:20:51.565Z,20.91
2023-05-13T11:22:04.794Z,20.96
2023-05-13T11:23:08.851Z,21.07
2023-05-13T11:24:19.353Z,21.14
2023-05-13T11:25:27.875Z,21.19
2023-05-13T11:26:56.757Z,21.12
2023-05-13T11:28:00.741Z,21.24
2023-05-13T11:29:09.326Z,21.27
2023-05-13T11:30:26.995Z,21.21
2023-05-13T11:31:53.565Z,21.19
2023-05-13T11:33:00.182Z,21.27
2023-05-13T11:34:22.933Z,21.33
2023-05-13T11:35:33.120Z,21.43
2023-05-13T11:36:53.277Z,21.45
2023-05-13T11:38:00.454Z,21.39
2023-05-13T11:39:14.139Z,21.32
2023-05-13T11:40:31.879Z,21.31
2023-05-13T11:41:37.246Z,21.34
2023-05-13T11:42:41.957Z,21.33
2023-05-13T11:43:46.760Z,21.36
2023-05-13T11:44:53.394Z,21.36
2023-05-13T11:45:59.544Z,21.41
2023-05-13T11:47:08.748Z,21.48
2023-05-13T11:48:22.458Z,21.38
2023-05-13T11:49:45.572Z,21.31
2023-05-13T11:50:52.551Z,21.26
2023-05-13T11:51:58.941Z,21.27
2023-05-13T11:53:04.481Z,21.18
2023-05-13T11:54:20.262Z,21.12
2023-05-13T11:55:34.352Z,21.15
2023-05-13T11:56:43.253Z,21.02
2023-05-13T11:57:49.387Z,20.96
2023-05-13T11:58:53.678Z,20.95
2023-05-13T12:00:10.499Z,20.93
2023-05-13T12:01:15.522Z,20.91
2023-05-13T12:02:39.403Z,21.00
2023-05-13T12:03:45.384Z,21.01
2023-05-13T12:04:53.444Z,21.03
2023-05-13T12:06:05.101Z,21.05
2023-05-13T12:07:12.829Z,21.00
2023-05-13T12:08:16.689Z,20.92
2023-05-13T12:09:27.371Z,20.89
2023-05-13T12:10:31.762Z,20.85
2023-05-13T12:11:40.775Z,20.80
2023-05-13T12:12:46.877Z,20.76
2023-05-13T12:13:52.966Z,20.58
2023-05-13T12:15:00.919Z,20.51
2023-05-13T12:16:07.727Z,20.43
2023-05-13T12:17:14.703Z,20.35
2023-05-13T12:18:19.663Z,20.35
2023-05-13T12:19:23.928Z,20.31
2023-05-13T12:20:27.880Z,20.25
2023-05-13T12:21:36.031Z,20.24
2023-05-13T12:22:45.915Z,20.20
2023-05-13T12:23:50.420Z,20.18
2023-05-13T12:24:56.483Z,20.11
2023-05-13T12:26:00.857Z,20.04
2023-05-13T12:27:11.289Z,20.02
2023-05-13T12:28:20.469Z,20.00
2023-05-13T12:29:27.949Z,19.99
2023-05-13T12:30:39.722Z,20.00
2023-05-13T12:32:04.026Z,20.04
2023-05-13T12:33:31.841Z,20.09
2023-05-13T12:34:36.795Z,20.10
2023-05-13T12:35:42.774Z,20.11
2023-05-13T12:36:46.982Z,20.13
2023-05-13T12:38:16.622Z,20.08
2023-05-13T12:39:24.410Z,20.12
2023-05-13T12:40:35.784Z,20.01
2023-05-13T12:41:44.116Z,19.99
2023-05-13T12:42:48.068Z,20.05
2023-05-13T12:44:17.989Z,20.07
2023-05-13T12:45:22.835Z,20.03
2023-05-13T12:46:28.342Z,19.99
2023-05-13T12:47:49.049Z,19.91
2023-05-13T12:48:59.857Z,20.00
2023-05-13T12:50:06.919Z,19.92
2023-05-13T12:51:10.818Z,19.91
2023-05-13T12:52:18.496Z,19.91
2023-05-13T12:53:22.609Z,19.97
2023-05-13T12:54:26.640Z,20.00
2023-05-13T12:55:30.710Z,20.01
2023-05-13T12:56:37.234Z,20.04
2023-05-13T12:57:55.783Z,20.02
2023-05-13T12:58:59.730Z,19.92
2023-05-13T13:00:07.705Z,19.95
2023-05-13T13:01:12.196Z,19.87
2023-05-13T13:02:16.315Z,19.84
2023-05-13T13:03:23.296Z,19.85
2023-05-13T13:04:31.358Z,19.79
2023-05-13T13:05:35.775Z,19.78
2023-05-13T13:06:40.538Z,19.78
2023-05-13T13:07:45.104Z,19.78
2023-05-13T13:08:49.477Z,19.78
2023-05-13T13:09:55.386Z,19.76
2023-05-13T13:11:04.672Z,19.77
2023-05-13T13:12:12.192Z,19.79
2023-05-13T13:13:16.740Z,19.72
2023-05-13T13:14:20.847Z,19.70
2023-05-13T13:15:24.733Z,19.64
2023-05-13T13:16:32.069Z,19.63
2023-05-13T13:17:38.833Z,19.55
2023-05-13T13:18:43.540Z,19.62
2023-05-13T13:19:47.339Z,19.62
2023-05-13T13:20:52.523Z,19.55
2023-05-13T13:21:56.301Z,19.57
2023-05-13T13:23:00.881Z,19.58
2023-05-13T13:24:06.653Z,19.56
2023-05-13T13:25:11.305Z,19.57
2023-05-13T13:26:24.096Z,19.60
2023-05-13T13:27:50.889Z,19.52
2023-05-13T13:28:55.563Z,19.53
2023-05-13T13:29:59.841Z,19.58
2023-05-13T13:31:04.109Z,19.55
2023-05-13T13:32:08.631Z,19.58
2023-05-13T13:33:20.177Z,19.58
2023-05-13T13:34:27.616Z,19.59
2023-05-13T13:35:32.058Z,19.57
2023-05-13T13:36:36.437Z,19.54
2023-05-13T13:37:40.920Z,19.55
2023-05-13T13:38:44.563Z,19.62
2023-05-13T13:39:48.770Z,19.61
2023-05-13T13:40:52.571Z,19.60
2023-05-13T13:41:57.877Z,19.64
2023-05-13T13:43:15.590Z,19.66
2023-05-13T13:44:20.569Z,19.71
2023-05-13T13:45:25.266Z,19.72
2023-05-13T13:46:31.110Z,19.71
2023-05-13T13:47:35.308Z,19.60
2023-05-13T13:48:39.855Z,19.60
2023-05-13T13:49:43.657Z,19.52
2023-05-13T13:50:49.843Z,19.55
2023-05-13T13:51:55.673Z,19.52
2023-05-13T13:52:59.766Z,19.55
2023-05-13T13:54:09.825Z,19.60
2023-05-13T13:55:15.401Z,19.61
2023-05-13T13:56:20.315Z,19.66
2023-05-13T13:57:27.024Z,19.65
2023-05-13T13:58:40.740Z,19.60
2023-05-13T13:59:59.913Z,19.52
2023-05-13T14:01:09.042Z,19.56
2023-05-13T14:02:45.532Z,19.44
2023-05-13T14:04:24.916Z,19.47
2023-05-13T14:05:32.520Z,19.41
2023-05-13T14:06:51.582Z,19.42
2023-05-13T14:08:02.812Z,19.41
2023-05-13T14:09:10.299Z,19.38
2023-05-13T14:10:14.449Z,19.34
2023-05-13T14:11:19.294Z,19.34
2023-05-13T14:12:25.100Z,19.40
2023-05-13T14:13:30.503Z,19.44
2023-05-13T14:14:39.155Z,19.42
2023-05-13T14:15:43.108Z,19.47
2023-05-13T14:16:47.182Z,19.50
2023-05-13T14:17:53.144Z,19.46
2023-05-13T14:18:57.225Z,19.44
2023-05-13T14:20:01.932Z,19.47
2023-05-13T14:21:05.955Z,19.51
2023-05-13T14:22:17.935Z,19.45
2023-05-13T14:23:26.204Z,19.44
2023-05-13T14:24:30.445Z,19.46